createdAt,value
2023-03-31T00:00:33.158Z,36.42
2023-03-31T00:01:33.178Z,37.22
2023-03-31T00:02:33.243Z,37.87
2023-03-31T00:03:33.214Z,37.71
2023-03-31T00:04:33.175Z,39.96
2023-03-31T00:05:33.159Z,38.35
2023-03-31T00:06:33.375Z,37.54
2023-03-31T00:07:33.098Z,37.06
2023-03-31T00:08:33.089Z,37.54
2023-03-31T00:09:33.105Z,38.03
2023-03-31T00:10:33.085Z,40.44
2023-03-31T00:11:33.098Z,38.03
2023-03-31T00:12:33.058Z,37.22
2023-03-31T00:13:33.077Z,36.25
2023-03-31T00:14:33.053Z,36.90
2023-03-31T00:15:33.048Z,37.54
2023-03-31T00:16:33.138Z,37.71
2023-03-31T00:17:33.131Z,37.71
2023-03-31T00:18:33.023Z,37.87
2023-03-31T00:19:33.024Z,40.93
2023-03-31T00:20:33.052Z,37.54
2023-03-31T00:21:33.032Z,37.06
2023-03-31T00:22:33.016Z,38.03
2023-03-31T00:23:32.992Z,37.22
2023-03-31T00:24:33.112Z,37.06
2023-03-31T00:25:33.032Z,38.67
2023-03-31T00:26:32.955Z,38.99
2023-03-31T00:27:32.993Z,37.22
2023-03-31T00:28:32.969Z,38.99
2023-03-31T00:29:32.940Z,39.96
2023-03-31T00:30:32.933Z,37.71
2023-03-31T00:31:32.954Z,39.48
2023-03-31T00:32:33.000Z,37.22
2023-03-31T00:33:32.920Z,37.06
2023-03-31T00:34:32.892Z,38.03
2023-03-31T00:35:32.901Z,37.22
2023-03-31T00:36:32.892Z,37.22
2023-03-31T00:37:32.904Z,37.87
2023-03-31T00:38:32.870Z,37.71
2023-03-31T00:39:32.873Z,37.54
2023-03-31T00:40:32.845Z,37.38
2023-03-31T00:41:32.855Z,37.71
2023-03-31T00:42:32.863Z,37.22
2023-03-31T00:43:32.835Z,37.87
2023-03-31T00:44:32.814Z,36.90
2023-03-31T00:45:32.833Z,37.38
2023-03-31T00:46:32.814Z,40.44
2023-03-31T00:47:32.869Z,37.06
2023-03-31T00:48:32.779Z,37.71
2023-03-31T00:49:32.807Z,37.54
2023-03-31T00:50:32.786Z,38.83
2023-03-31T00:51:32.749Z,38.35
2023-03-31T00:52:32.769Z,38.03
2023-03-31T00:53:32.754Z,44.15
2023-03-31T00:54:32.735Z,38.03
2023-03-31T00:55:32.775Z,37.54
2023-03-31T00:56:32.737Z,37.71
2023-03-31T00:57:32.753Z,39.96
2023-03-31T00:58:32.699Z,38.03
2023-03-31T00:59:32.755Z,37.54
2023-03-31T01:00:32.694Z,37.87
2023-03-31T01:01:32.697Z,41.89
2023-03-31T01:02:32.804Z,37.54
2023-03-31T01:03:32.683Z,37.54
2023-03-31T01:04:32.656Z,37.22
2023-03-31T01:05:32.658Z,37.54
2023-03-31T01:06:32.648Z,38.03
2023-03-31T01:07:32.675Z,38.19
2023-03-31T01:08:32.618Z,37.22
2023-03-31T01:09:32.611Z,37.71
2023-03-31T01:10:33.610Z,38.19
2023-03-31T01:11:32.637Z,38.35
2023-03-31T01:12:32.680Z,38.51
2023-03-31T01:13:33.581Z,37.06
2023-03-31T01:14:32.598Z,41.89
2023-03-31T01:15:32.574Z,52.53
2023-03-31T01:16:32.575Z,52.37
2023-03-31T01:17:32.733Z,51.88
2023-03-31T01:18:32.592Z,34.32
2023-03-31T01:19:32.536Z,35.61
2023-03-31T01:20:32.539Z,39.16
2023-03-31T01:21:32.534Z,36.42
2023-03-31T01:22:32.557Z,36.90
2023-03-31T01:23:32.579Z,42.54
2023-03-31T01:24:32.538Z,38.03
2023-03-31T01:25:32.501Z,38.67
2023-03-31T01:26:32.484Z,37.87
2023-03-31T01:27:32.509Z,37.06
2023-03-31T01:28:32.475Z,37.22
2023-03-31T01:29:32.466Z,37.54
2023-03-31T01:30:32.457Z,38.67
2023-03-31T01:31:32.511Z,39.96
2023-03-31T01:32:32.537Z,44.47
2023-03-31T01:33:32.427Z,39.32
2023-03-31T01:34:32.440Z,37.22
2023-03-31T01:35:32.434Z,36.58
2023-03-31T01:36:32.409Z,36.58
2023-03-31T01:37:32.490Z,38.03
2023-03-31T01:38:32.395Z,37.71
2023-03-31T01:39:32.384Z,38.03
2023-03-31T01:40:32.381Z,36.74
2023-03-31T01:41:32.378Z,38.83
2023-03-31T01:42:32.402Z,38.19
2023-03-31T01:43:32.356Z,39.80
2023-03-31T01:44:32.344Z,37.06
2023-03-31T01:45:32.371Z,38.03
2023-03-31T01:46:32.373Z,39.16
2023-03-31T01:47:32.396Z,38.03
2023-03-31T01:48:32.321Z,37.87
2023-03-31T01:49:32.310Z,37.71
2023-03-31T01:50:32.312Z,37.54
2023-03-31T01:51:32.296Z,38.67
2023-03-31T01:52:32.312Z,38.83
2023-03-31T01:53:32.294Z,37.54
2023-03-31T01:54:32.266Z,37.87
2023-03-31T01:55:32.273Z,40.61
2023-03-31T01:56:32.251Z,38.19
2023-03-31T01:57:32.246Z,38.35
2023-03-31T01:58:32.318Z,43.51
2023-03-31T01:59:32.237Z,38.83
2023-03-31T02:00:32.229Z,38.67
2023-03-31T02:01:32.295Z,40.93
2023-03-31T02:02:32.289Z,39.16
2023-03-31T02:03:32.309Z,39.48
2023-03-31T02:04:32.213Z,39.96
2023-03-31T02:05:32.213Z,40.93
2023-03-31T02:06:32.205Z,40.28
2023-03-31T02:07:32.173Z,38.51
2023-03-31T02:08:32.204Z,38.51
2023-03-31T02:09:32.201Z,46.41
2023-03-31T02:10:32.169Z,38.51
2023-03-31T02:11:32.142Z,37.71
2023-03-31T02:12:32.137Z,38.35
2023-03-31T02:13:32.156Z,37.87
2023-03-31T02:14:32.126Z,40.93
2023-03-31T02:15:32.133Z,38.99
2023-03-31T02:16:32.217Z,40.44
2023-03-31T02:17:32.103Z,40.44
2023-03-31T02:18:32.123Z,38.35
2023-03-31T02:19:32.092Z,38.67
2023-03-31T02:20:32.073Z,37.71
2023-03-31T02:21:32.080Z,37.22
2023-03-31T02:22:32.054Z,38.19
2023-03-31T02:23:32.073Z,41.57
2023-03-31T02:24:32.041Z,39.48
2023-03-31T02:25:32.035Z,37.54
2023-03-31T02:26:32.029Z,38.35
2023-03-31T02:27:32.049Z,38.67
2023-03-31T02:28:32.065Z,38.83
2023-03-31T02:29:32.002Z,39.80
2023-03-31T02:30:32.001Z,42.06
2023-03-31T02:31:32.009Z,38.83
2023-03-31T02:32:32.028Z,40.44
2023-03-31T02:33:32.003Z,45.28
2023-03-31T02:34:31.983Z,41.41
2023-03-31T02:35:31.983Z,38.67
2023-03-31T02:36:31.946Z,38.03
2023-03-31T02:37:31.962Z,38.35
2023-03-31T02:38:31.959Z,39.32
2023-03-31T02:39:31.919Z,39.64
2023-03-31T02:40:31.911Z,42.38
2023-03-31T02:41:32.907Z,40.61
2023-03-31T02:42:31.931Z,42.06
2023-03-31T02:43:31.916Z,40.28
2023-03-31T02:44:31.888Z,40.61
2023-03-31T02:45:31.931Z,39.64
2023-03-31T02:46:32.108Z,39.32
2023-03-31T02:47:31.926Z,40.61
2023-03-31T02:48:31.895Z,44.31
2023-03-31T02:49:31.835Z,42.22
2023-03-31T02:50:34.298Z,39.80
2023-03-31T02:51:31.828Z,39.96
2023-03-31T02:52:31.817Z,45.12
2023-03-31T02:53:31.846Z,41.57
2023-03-31T02:54:31.810Z,38.99
2023-03-31T02:55:31.799Z,38.51
2023-03-31T02:56:31.784Z,40.28
2023-03-31T02:57:31.791Z,39.16
2023-03-31T02:58:31.812Z,40.12
2023-03-31T02:59:31.769Z,39.64
2023-03-31T03:00:31.756Z,40.28
2023-03-31T03:01:31.818Z,40.77
2023-03-31T03:02:31.839Z,38.83
2023-03-31T03:03:31.770Z,41.73
2023-03-31T03:04:31.760Z,42.06
2023-03-31T03:05:31.728Z,48.98
2023-03-31T03:06:31.717Z,40.77
2023-03-31T03:07:31.713Z,39.96
2023-03-31T03:08:31.705Z,44.47
2023-03-31T03:09:31.736Z,42.38
2023-03-31T03:10:31.724Z,42.38
2023-03-31T03:11:31.701Z,48.82
2023-03-31T03:12:31.697Z,40.61
2023-03-31T03:13:31.665Z,39.80
2023-03-31T03:14:31.692Z,42.54
2023-03-31T03:15:31.654Z,47.53
2023-03-31T03:16:31.678Z,46.08
2023-03-31T03:17:31.652Z,41.09
2023-03-31T03:18:31.631Z,41.41
2023-03-31T03:19:31.647Z,41.25
2023-03-31T03:20:31.615Z,41.89
2023-03-31T03:21:31.625Z,46.41
2023-03-31T03:22:31.659Z,45.76
2023-03-31T03:23:31.587Z,41.73
2023-03-31T03:24:31.615Z,41.09
2023-03-31T03:25:31.582Z,42.54
2023-03-31T03:26:31.559Z,46.25
2023-03-31T03:27:31.556Z,42.54
2023-03-31T03:28:31.560Z,43.83
2023-03-31T03:29:31.569Z,40.61
2023-03-31T03:30:31.613Z,40.28
2023-03-31T03:31:31.535Z,46.08
2023-03-31T03:32:31.560Z,43.51
2023-03-31T03:33:31.530Z,41.73
2023-03-31T03:34:31.538Z,46.25
2023-03-31T03:35:31.507Z,47.37
2023-03-31T03:36:31.492Z,50.60
2023-03-31T03:37:31.477Z,48.82
2023-03-31T03:38:31.477Z,45.44
2023-03-31T03:39:31.519Z,46.73
2023-03-31T03:40:31.459Z,43.51
2023-03-31T03:41:31.451Z,42.70
2023-03-31T03:42:31.456Z,40.93
2023-03-31T03:43:31.458Z,46.57
2023-03-31T03:44:31.475Z,40.61
2023-03-31T03:45:31.407Z,40.61
2023-03-31T03:46:32.462Z,41.73
2023-03-31T03:47:31.433Z,46.89
2023-03-31T03:48:31.400Z,44.79
2023-03-31T03:49:31.415Z,51.24
2023-03-31T03:50:31.398Z,49.79
2023-03-31T03:51:31.377Z,41.41
2023-03-31T03:52:31.365Z,39.80
2023-03-31T03:53:31.385Z,42.70
2023-03-31T03:54:31.382Z,44.47
2023-03-31T03:55:31.348Z,50.92
2023-03-31T03:56:31.349Z,42.06
2023-03-31T03:57:31.371Z,41.09
2023-03-31T03:58:31.315Z,43.51
2023-03-31T03:59:31.340Z,49.47
2023-03-31T04:00:31.331Z,41.73
2023-03-31T04:01:31.315Z,40.44
2023-03-31T04:02:31.343Z,47.86
2023-03-31T04:03:31.281Z,43.83
2023-03-31T04:04:31.369Z,51.88
2023-03-31T04:05:31.320Z,47.53
2023-03-31T04:06:31.257Z,43.18
2023-03-31T04:07:31.249Z,47.05
2023-03-31T04:08:31.250Z,47.05
2023-03-31T04:09:31.244Z,45.12
2023-03-31T04:10:31.259Z,44.31
2023-03-31T04:11:31.228Z,47.37
2023-03-31T04:12:31.232Z,48.50
2023-03-31T04:13:31.210Z,43.51
2023-03-31T04:14:31.195Z,44.47
2023-03-31T04:15:31.212Z,42.70
2023-03-31T04:16:31.214Z,49.95
2023-03-31T04:17:31.211Z,50.92
2023-03-31T04:18:31.162Z,50.92
2023-03-31T04:19:31.162Z,43.99
2023-03-31T04:20:31.179Z,47.70
2023-03-31T04:21:31.179Z,51.40
2023-03-31T04:22:31.132Z,47.86
2023-03-31T04:23:31.125Z,50.92
2023-03-31T04:24:31.123Z,48.82
2023-03-31T04:25:31.130Z,49.47
2023-03-31T04:26:31.137Z,44.63
2023-03-31T04:27:31.113Z,47.70
2023-03-31T04:28:31.091Z,50.43
2023-03-31T04:29:31.082Z,47.37
2023-03-31T04:30:31.245Z,46.25
2023-03-31T04:31:31.160Z,47.70
2023-03-31T04:35:06.094Z,55.59
2023-03-31T04:36:06.364Z,57.69
2023-03-31T04:37:06.071Z,55.43
2023-03-31T04:38:06.093Z,55.43
2023-03-31T04:39:06.065Z,55.91
2023-03-31T04:40:06.044Z,55.75
2023-03-31T04:41:06.032Z,56.40
2023-03-31T04:42:06.035Z,55.91
2023-03-31T04:43:07.157Z,57.52
2023-03-31T04:44:07.149Z,56.24
2023-03-31T04:45:07.174Z,51.40
2023-03-31T04:46:07.261Z,46.25
2023-03-31T04:47:07.172Z,53.50
2023-03-31T04:48:07.140Z,51.72
2023-03-31T04:49:07.109Z,45.28
2023-03-31T04:50:07.107Z,41.57
2023-03-31T04:51:07.122Z,47.05
2023-03-31T04:52:07.088Z,48.50
2023-03-31T04:53:07.100Z,48.18
2023-03-31T04:54:07.074Z,47.21
2023-03-31T04:55:07.059Z,51.08
2023-03-31T04:56:07.146Z,53.17
2023-03-31T04:57:07.075Z,45.60
2023-03-31T04:58:07.036Z,45.12
2023-03-31T04:59:07.033Z,50.60
2023-03-31T05:00:07.038Z,51.08
2023-03-31T05:01:07.063Z,53.98
2023-03-31T05:02:07.038Z,47.37
2023-03-31T05:03:07.124Z,54.30
2023-03-31T05:04:06.992Z,49.31
2023-03-31T05:05:06.986Z,48.82
2023-03-31T05:06:07.271Z,47.53
2023-03-31T05:07:06.975Z,45.28
2023-03-31T05:08:06.975Z,53.98
2023-03-31T05:09:06.957Z,49.63
2023-03-31T05:10:06.953Z,53.17
2023-03-31T05:11:06.968Z,48.34
2023-03-31T05:12:06.934Z,49.95
2023-03-31T05:13:06.925Z,48.98
2023-03-31T05:14:06.920Z,51.88
2023-03-31T05:15:06.907Z,52.69
2023-03-31T05:16:07.112Z,50.92
2023-03-31T05:17:06.900Z,48.98
2023-03-31T05:18:06.943Z,53.82
2023-03-31T05:19:06.891Z,52.69
2023-03-31T05:20:06.915Z,46.41
2023-03-31T05:21:06.893Z,45.44
2023-03-31T05:22:06.883Z,51.24
2023-03-31T05:23:06.919Z,47.86
2023-03-31T05:24:06.841Z,52.69
2023-03-31T05:25:06.858Z,52.37
2023-03-31T05:26:07.018Z,47.21
2023-03-31T05:27:06.832Z,48.18
2023-03-31T05:28:06.817Z,52.21
2023-03-31T05:29:06.803Z,54.14
2023-03-31T05:30:06.846Z,51.72
2023-03-31T05:31:06.824Z,51.56
2023-03-31T05:32:06.798Z,54.30
2023-03-31T05:33:06.831Z,48.18
2023-03-31T05:34:06.769Z,48.02
2023-03-31T05:35:06.767Z,52.37
2023-03-31T05:36:06.937Z,53.82
2023-03-31T05:37:06.746Z,53.66
2023-03-31T05:38:06.749Z,52.05
2023-03-31T05:39:06.730Z,49.95
2023-03-31T05:40:06.728Z,50.76
2023-03-31T05:41:06.738Z,53.50
2023-03-31T05:42:06.705Z,51.08
2023-03-31T05:43:06.697Z,45.12
2023-03-31T05:44:06.691Z,53.82
2023-03-31T05:45:09.017Z,53.98
2023-03-31T05:46:08.400Z,52.21
2023-03-31T05:47:06.669Z,56.07
2023-03-31T05:48:06.696Z,49.79
2023-03-31T05:49:06.649Z,46.89
2023-03-31T05:50:06.639Z,48.02
2023-03-31T05:51:06.667Z,50.27
2023-03-31T05:52:06.637Z,44.63
2023-03-31T05:53:06.645Z,44.96
2023-03-31T05:54:06.686Z,54.14
2023-03-31T05:55:06.605Z,49.63
2023-03-31T05:56:06.868Z,48.02
2023-03-31T05:57:06.633Z,49.31
2023-03-31T05:58:06.585Z,47.37
2023-03-31T05:59:06.572Z,52.53
2023-03-31T06:00:06.620Z,46.73
2023-03-31T06:01:06.977Z,44.63
2023-03-31T06:02:06.610Z,45.12
2023-03-31T06:03:06.724Z,54.30
2023-03-31T06:04:06.555Z,43.34
2023-03-31T06:05:06.526Z,48.18
2023-03-31T06:06:06.607Z,47.86
2023-03-31T06:07:06.518Z,48.82
2023-03-31T06:08:06.500Z,48.98
2023-03-31T06:09:06.515Z,47.70
2023-03-31T06:10:06.492Z,44.47
2023-03-31T06:11:06.879Z,50.76
2023-03-31T06:12:06.468Z,49.95
2023-03-31T06:13:06.461Z,52.21
2023-03-31T06:14:06.452Z,46.73
2023-03-31T06:15:06.497Z,53.33
2023-03-31T06:16:07.414Z,44.31
2023-03-31T06:17:07.291Z,53.17
2023-03-31T06:18:06.448Z,47.05
2023-03-31T06:19:06.488Z,46.57
2023-03-31T06:20:16.353Z,51.56
2023-03-31T06:21:08.667Z,46.73
2023-03-31T06:22:06.475Z,45.12
2023-03-31T06:23:06.476Z,45.76
2023-03-31T06:24:06.372Z,56.24
2023-03-31T06:25:06.386Z,49.47
2023-03-31T06:26:06.379Z,48.66
2023-03-31T06:27:06.355Z,48.82
2023-03-31T06:28:06.341Z,50.27
2023-03-31T06:29:06.382Z,50.76
2023-03-31T06:30:06.323Z,44.79
2023-03-31T06:31:06.542Z,50.76
2023-03-31T06:32:06.720Z,48.02
2023-03-31T06:33:06.359Z,46.08
2023-03-31T06:34:06.288Z,47.53
2023-03-31T06:35:06.304Z,46.89
2023-03-31T06:36:06.324Z,52.85
2023-03-31T06:37:06.266Z,48.34
2023-03-31T06:38:06.259Z,47.53
2023-03-31T06:39:06.260Z,48.50
2023-03-31T06:40:06.245Z,50.11
2023-03-31T06:41:06.385Z,43.51
2023-03-31T06:42:06.252Z,44.47
2023-03-31T06:43:06.235Z,47.86
2023-03-31T06:44:06.233Z,53.17
2023-03-31T06:45:06.212Z,53.50
2023-03-31T06:46:06.437Z,53.66
2023-03-31T06:47:06.223Z,47.21
2023-03-31T06:48:06.229Z,51.08
2023-03-31T06:49:06.225Z,50.43
2023-03-31T06:50:06.169Z,47.70
2023-03-31T06:51:06.173Z,49.63
2023-03-31T06:52:06.182Z,63.16
2023-03-31T06:53:06.169Z,61.07
2023-03-31T06:54:06.147Z,62.20
2023-03-31T06:55:06.159Z,60.59
2023-03-31T06:56:06.329Z,60.26
2023-03-31T06:57:06.167Z,57.85
2023-03-31T06:58:06.111Z,53.98
2023-03-31T06:59:06.137Z,57.69
2023-03-31T07:00:06.107Z,62.68
2023-03-31T07:01:06.579Z,63.00
2023-03-31T07:02:06.159Z,50.27
2023-03-31T07:03:06.143Z,54.95
2023-03-31T07:04:06.093Z,48.34
2023-03-31T07:05:06.063Z,48.02
2023-03-31T07:06:06.051Z,47.70
2023-03-31T07:07:06.078Z,50.11
2023-03-31T07:08:06.035Z,50.76
2023-03-31T07:09:06.024Z,50.27
2023-03-31T07:10:06.019Z,48.98
2023-03-31T07:11:06.312Z,45.28
2023-03-31T07:12:06.029Z,47.86
2023-03-31T07:13:06.208Z,51.72
2023-03-31T07:14:05.991Z,48.82
2023-03-31T07:15:06.841Z,46.73
2023-03-31T07:16:07.165Z,48.50
2023-03-31T07:17:06.078Z,55.27
2023-03-31T07:18:06.008Z,53.17
2023-03-31T07:19:05.963Z,50.92
2023-03-31T07:20:05.961Z,48.02
2023-03-31T07:21:09.073Z,52.69
2023-03-31T07:22:06.957Z,52.05
2023-03-31T07:23:05.924Z,50.92
2023-03-31T07:24:05.916Z,52.85
2023-03-31T07:25:05.908Z,53.01
2023-03-31T07:26:05.899Z,50.60
2023-03-31T07:27:05.922Z,50.92
2023-03-31T07:28:05.889Z,53.01
2023-03-31T07:29:05.903Z,55.75
2023-03-31T07:30:05.871Z,53.33
2023-03-31T07:31:05.964Z,49.79
2023-03-31T07:32:05.915Z,48.98
2023-03-31T07:33:05.899Z,53.50
2023-03-31T07:34:05.840Z,48.82
2023-03-31T07:35:05.831Z,48.66
2023-03-31T07:36:12.845Z,52.21
2023-03-31T07:37:07.845Z,53.01
2023-03-31T07:38:05.821Z,50.43
2023-03-31T07:39:05.800Z,49.79
2023-03-31T07:40:05.806Z,47.70
2023-03-31T07:41:09.651Z,51.88
2023-03-31T07:42:06.807Z,53.50
2023-03-31T07:43:05.780Z,51.24
2023-03-31T07:44:05.778Z,54.79
2023-03-31T07:45:05.768Z,49.79
2023-03-31T07:46:06.356Z,52.69
2023-03-31T07:47:05.769Z,55.43
2023-03-31T07:48:05.754Z,49.31
2023-03-31T07:49:05.739Z,46.89
2023-03-31T07:50:05.737Z,48.98
2023-03-31T07:51:05.972Z,50.27
2023-03-31T07:52:05.730Z,54.95
2023-03-31T07:53:05.691Z,56.07
2023-03-31T07:54:05.688Z,53.66
2023-03-31T07:55:05.677Z,50.76
2023-03-31T07:56:05.901Z,49.31
2023-03-31T07:57:05.755Z,51.08
2023-03-31T07:58:05.666Z,55.75
2023-03-31T07:59:05.660Z,56.07
2023-03-31T08:00:05.661Z,55.43
2023-03-31T08:01:05.878Z,55.91
2023-03-31T08:02:05.715Z,57.36
2023-03-31T08:03:05.711Z,55.91
2023-03-31T08:04:05.660Z,55.43
2023-03-31T08:05:05.608Z,54.95
2023-03-31T08:06:05.781Z,57.52
2023-03-31T08:07:05.615Z,55.27
2023-03-31T08:08:05.586Z,55.43
2023-03-31T08:09:05.586Z,55.43
2023-03-31T08:10:05.570Z,53.17
2023-03-31T08:11:05.722Z,53.50
2023-03-31T08:12:05.617Z,54.46
2023-03-31T08:13:05.553Z,52.85
2023-03-31T08:14:05.548Z,52.21
2023-03-31T08:15:05.528Z,55.59
2023-03-31T08:16:05.764Z,54.95
2023-03-31T08:17:05.541Z,52.53
2023-03-31T08:18:05.557Z,56.07
2023-03-31T08:19:05.513Z,56.07
2023-03-31T08:20:07.809Z,52.85
2023-03-31T08:21:06.613Z,55.75
2023-03-31T08:22:05.507Z,53.82
2023-03-31T08:23:05.486Z,51.88
2023-03-31T08:24:05.469Z,55.59
2023-03-31T08:25:05.462Z,55.11
2023-03-31T08:26:05.594Z,50.92
2023-03-31T08:28:06.438Z,50.60
2023-03-31T08:29:05.471Z,53.82
2023-03-31T08:30:05.419Z,48.18
2023-03-31T08:31:05.419Z,54.46
2023-03-31T08:32:05.584Z,61.71
2023-03-31T08:33:05.466Z,60.10
2023-03-31T08:34:05.390Z,50.76
2023-03-31T08:35:05.389Z,54.95
2023-03-31T08:36:05.545Z,58.01
2023-03-31T08:37:05.991Z,57.04
2023-03-31T08:38:06.361Z,58.01
2023-03-31T08:39:05.351Z,58.49
2023-03-31T08:40:05.350Z,57.52
2023-03-31T08:41:05.340Z,56.72
2023-03-31T08:42:05.370Z,58.49
2023-03-31T08:43:05.331Z,66.55
2023-03-31T08:44:05.320Z,66.39
2023-03-31T08:45:05.308Z,65.10
2023-03-31T08:46:05.455Z,67.35
2023-03-31T08:47:05.339Z,65.74
2023-03-31T08:48:07.210Z,64.45
2023-03-31T08:49:06.279Z,55.27
2023-03-31T08:50:05.271Z,52.85
2023-03-31T08:51:05.587Z,51.88
2023-03-31T08:52:06.298Z,54.30
2023-03-31T08:53:05.250Z,51.40
2023-03-31T08:54:05.241Z,53.82
2023-03-31T08:55:05.239Z,51.88
2023-03-31T08:56:05.374Z,54.46
2023-03-31T08:57:05.256Z,53.17
2023-03-31T08:58:05.207Z,49.95
2023-03-31T08:59:05.238Z,49.79
2023-03-31T09:00:05.194Z,50.92
2023-03-31T09:01:05.446Z,52.37
2023-03-31T09:02:05.264Z,48.82
2023-03-31T09:03:07.325Z,52.05
2023-03-31T09:04:07.153Z,55.59
2023-03-31T09:05:06.156Z,55.75
2023-03-31T09:06:05.158Z,52.37
2023-03-31T09:07:05.143Z,50.92
2023-03-31T09:08:05.155Z,51.24
2023-03-31T09:09:05.125Z,49.79
2023-03-31T09:10:05.133Z,49.79
2023-03-31T09:11:05.109Z,50.76
2023-03-31T09:12:05.107Z,52.21
2023-03-31T09:13:05.165Z,50.92
2023-03-31T09:14:05.152Z,53.66
2023-03-31T09:15:05.204Z,52.53
2023-03-31T09:16:05.477Z,49.47
2023-03-31T09:17:05.112Z,46.89
2023-03-31T09:18:05.094Z,49.63
2023-03-31T09:19:05.046Z,53.01
2023-03-31T09:20:05.043Z,49.31
2023-03-31T09:21:05.248Z,45.60
2023-03-31T09:22:05.020Z,52.21
2023-03-31T09:23:05.057Z,54.14
2023-03-31T09:24:05.067Z,49.31
2023-03-31T09:25:05.010Z,45.60
2023-03-31T09:26:05.204Z,51.56
2023-03-31T09:27:04.996Z,61.07
2023-03-31T09:28:05.010Z,50.27
2023-03-31T09:29:04.989Z,52.85
2023-03-31T09:30:04.968Z,49.31
2023-03-31T09:31:05.004Z,59.30
2023-03-31T09:32:04.953Z,61.23
2023-03-31T09:33:05.008Z,61.07
2023-03-31T09:34:04.944Z,54.46
2023-03-31T09:35:04.934Z,64.61
2023-03-31T09:36:05.032Z,59.94
2023-03-31T09:37:04.913Z,59.78
2023-03-31T09:38:04.931Z,59.62
2023-03-31T09:39:04.895Z,50.27
2023-03-31T09:40:04.894Z,53.98
2023-03-31T09:41:04.886Z,49.15
2023-03-31T09:42:04.878Z,51.40
2023-03-31T09:43:04.890Z,54.14
2023-03-31T09:44:04.867Z,52.85
2023-03-31T09:45:04.851Z,52.69
2023-03-31T09:46:14.597Z,53.01
2023-03-31T09:47:08.970Z,54.46
2023-03-31T09:48:04.887Z,52.69
2023-03-31T09:49:04.821Z,51.56
2023-03-31T09:50:04.826Z,57.69
2023-03-31T09:51:04.879Z,53.98
2023-03-31T09:52:04.795Z,52.37
2023-03-31T09:53:04.822Z,46.89
2023-03-31T09:54:04.811Z,50.43
2023-03-31T09:55:04.781Z,49.79
2023-03-31T09:56:05.088Z,49.95
2023-03-31T09:57:04.782Z,52.53
2023-03-31T09:58:04.785Z,52.85
2023-03-31T09:59:04.750Z,54.14
2023-03-31T10:00:04.739Z,47.70
2023-03-31T10:01:05.154Z,47.21
2023-03-31T10:02:04.832Z,59.14
2023-03-31T10:03:04.765Z,59.94
2023-03-31T10:04:04.718Z,53.17
2023-03-31T10:05:04.694Z,52.21
2023-03-31T10:06:04.700Z,59.62
2023-03-31T10:07:04.689Z,53.50
2023-03-31T10:08:04.710Z,54.14
2023-03-31T10:09:04.675Z,55.75
2023-03-31T10:10:04.659Z,50.76
2023-03-31T10:11:04.809Z,49.31
2023-03-31T10:12:04.659Z,51.08
2023-03-31T10:13:04.682Z,48.18
2023-03-31T10:14:04.650Z,46.57
2023-03-31T10:15:04.670Z,51.72
2023-03-31T10:16:04.828Z,55.27
2023-03-31T10:17:04.618Z,54.14
2023-03-31T10:18:04.630Z,52.37
2023-03-31T10:19:04.652Z,49.63
2023-03-31T10:20:04.584Z,51.88
2023-03-31T10:21:04.797Z,51.24
2023-03-31T10:22:04.573Z,49.63
2023-03-31T10:23:05.330Z,48.82
2023-03-31T10:24:04.578Z,57.36
2023-03-31T10:25:04.555Z,51.72
2023-03-31T10:26:04.540Z,54.79
2023-03-31T10:27:04.539Z,54.62
2023-03-31T10:28:04.529Z,50.11
2023-03-31T10:29:04.550Z,55.27
2023-03-31T10:30:04.509Z,52.53
2023-03-31T10:31:04.647Z,53.01
2023-03-31T10:32:04.502Z,56.07
2023-03-31T10:33:36.454Z,47.70
2023-03-31T10:34:04.476Z,55.43
2023-03-31T10:35:04.464Z,47.21
2023-03-31T10:36:04.494Z,50.43
2023-03-31T10:37:04.454Z,54.46
2023-03-31T10:38:06.065Z,53.98
2023-03-31T10:39:05.466Z,54.79
2023-03-31T10:40:04.429Z,54.46
2023-03-31T10:41:04.734Z,51.56
2023-03-31T10:42:04.412Z,52.21
2023-03-31T10:43:04.421Z,52.69
2023-03-31T10:44:04.431Z,50.27
2023-03-31T10:45:04.395Z,52.37
2023-03-31T10:46:04.404Z,55.11
2023-03-31T10:47:04.486Z,53.82
2023-03-31T10:48:04.455Z,53.17
2023-03-31T10:49:04.394Z,49.47
2023-03-31T10:50:04.356Z,46.57
2023-03-31T10:51:04.567Z,51.08
2023-03-31T10:52:04.443Z,57.36
2023-03-31T10:53:04.328Z,54.62
2023-03-31T10:54:04.359Z,47.05
2023-03-31T10:55:04.323Z,49.15
2023-03-31T10:56:04.304Z,48.66
2023-03-31T10:57:04.310Z,46.73
2023-03-31T10:58:04.291Z,55.27
2023-03-31T10:59:06.353Z,42.86
2023-03-31T11:00:05.269Z,50.92
2023-03-31T11:01:04.438Z,51.88
2023-03-31T11:02:04.276Z,51.72
2023-03-31T11:03:04.301Z,53.50
2023-03-31T11:04:04.373Z,52.53
2023-03-31T11:05:04.231Z,42.38
2023-03-31T11:06:04.228Z,55.59
2023-03-31T11:07:04.221Z,49.79
2023-03-31T11:08:04.216Z,48.82
2023-03-31T11:09:04.244Z,50.92
2023-03-31T11:10:04.205Z,49.79
2023-03-31T11:11:04.322Z,52.21
2023-03-31T11:12:04.184Z,52.53
2023-03-31T11:13:04.209Z,53.50
2023-03-31T11:14:04.193Z,46.57
2023-03-31T11:15:04.160Z,54.95
2023-03-31T11:16:04.227Z,50.60
2023-03-31T11:17:04.206Z,48.02
2023-03-31T11:18:04.228Z,51.40
2023-03-31T11:19:04.158Z,49.79
2023-03-31T11:20:04.114Z,54.46
2023-03-31T11:21:04.219Z,55.43
2023-03-31T11:22:04.103Z,52.85
2023-03-31T11:23:04.085Z,52.69
2023-03-31T11:24:04.130Z,54.62
2023-03-31T11:25:04.082Z,52.53
2023-03-31T11:26:04.095Z,53.50
2023-03-31T11:27:04.063Z,54.95
2023-03-31T11:28:04.066Z,54.79
2023-03-31T11:29:04.088Z,52.69
2023-03-31T11:30:04.043Z,56.07
2023-03-31T11:31:04.334Z,47.53
2023-03-31T11:32:04.089Z,55.27
2023-03-31T11:33:04.071Z,51.08
2023-03-31T11:34:04.050Z,47.37
2023-03-31T11:35:04.008Z,48.02
2023-03-31T11:36:04.043Z,51.56
2023-03-31T11:37:03.990Z,53.50
2023-03-31T11:38:04.003Z,48.82
2023-03-31T11:39:04.012Z,47.21
2023-03-31T11:40:04.021Z,52.37
2023-03-31T11:41:04.103Z,51.24
2023-03-31T11:42:05.168Z,53.66
2023-03-31T11:43:03.947Z,54.30
2023-03-31T11:44:03.959Z,47.86
2023-03-31T11:45:03.961Z,50.11
2023-03-31T11:46:04.233Z,47.53
2023-03-31T11:47:03.920Z,52.53
2023-03-31T11:48:06.175Z,51.72
2023-03-31T11:49:03.921Z,47.86
2023-03-31T11:50:03.991Z,43.18
2023-03-31T11:51:03.882Z,50.11
2023-03-31T11:52:03.873Z,52.53
2023-03-31T11:53:03.878Z,55.91
2023-03-31T11:54:03.861Z,46.41
2023-03-31T11:55:03.881Z,42.86
2023-03-31T11:56:04.068Z,48.98
2023-03-31T11:57:03.847Z,49.31
2023-03-31T11:58:03.846Z,46.57
2023-03-31T11:59:03.849Z,45.28
2023-03-31T12:00:03.852Z,48.02
2023-03-31T12:01:03.803Z,53.17
2023-03-31T12:02:03.811Z,51.24
2023-03-31T12:03:03.891Z,49.47
2023-03-31T12:04:03.812Z,51.88
2023-03-31T12:05:03.803Z,53.98
2023-03-31T12:06:03.897Z,53.01
2023-03-31T12:07:03.796Z,54.79
2023-03-31T12:08:03.749Z,52.69
2023-03-31T12:09:03.766Z,44.79
2023-03-31T12:10:03.767Z,48.82
2023-03-31T12:11:03.730Z,47.70
2023-03-31T12:12:03.741Z,55.27
2023-03-31T12:13:03.732Z,47.53
2023-03-31T12:14:03.751Z,50.92
2023-03-31T12:15:03.725Z,51.08
2023-03-31T12:16:03.751Z,55.43
2023-03-31T12:17:03.707Z,54.79
2023-03-31T12:18:03.730Z,53.98
2023-03-31T12:19:03.764Z,49.47
2023-03-31T12:20:03.704Z,52.37
2023-03-31T12:21:03.666Z,51.40
2023-03-31T12:22:03.676Z,53.17
2023-03-31T12:23:03.642Z,53.98
2023-03-31T12:24:03.625Z,49.95
2023-03-31T12:25:03.638Z,44.63
2023-03-31T12:26:03.734Z,48.34
2023-03-31T12:27:03.603Z,51.40
2023-03-31T12:28:03.589Z,51.40
2023-03-31T12:29:03.628Z,51.24
2023-03-31T12:30:03.610Z,49.79
2023-03-31T12:31:03.639Z,52.37
2023-03-31T12:32:03.564Z,56.24
2023-03-31T12:33:03.642Z,55.43
2023-03-31T12:34:03.564Z,51.08
2023-03-31T12:35:03.579Z,52.53
2023-03-31T12:36:03.691Z,52.85
2023-03-31T12:37:03.524Z,50.76
2023-03-31T12:38:03.519Z,51.24
2023-03-31T12:39:03.505Z,54.14
2023-03-31T12:40:03.534Z,52.69
2023-03-31T12:41:03.492Z,52.69
2023-03-31T12:42:03.496Z,49.63
2023-03-31T12:43:03.472Z,50.76
2023-03-31T12:44:03.492Z,45.12
2023-03-31T12:45:03.482Z,51.24
2023-03-31T12:46:04.693Z,51.56
2023-03-31T12:47:03.712Z,51.56
2023-03-31T12:48:03.449Z,53.33
2023-03-31T12:49:03.439Z,53.01
2023-03-31T12:50:03.632Z,51.72
2023-03-31T12:51:03.552Z,53.98
2023-03-31T12:52:03.442Z,52.37
2023-03-31T12:53:03.413Z,49.79
2023-03-31T12:54:03.395Z,53.66
2023-03-31T12:55:03.415Z,48.50
2023-03-31T12:56:03.438Z,55.75